createdAt,value
2023-05-14T00:00:50.201Z,101467.47
2023-05-14T00:04:06.164Z,101456.78
2023-05-14T00:07:08.647Z,101459.94
2023-05-14T00:10:11.657Z,101458.09
2023-05-14T00:13:14.203Z,101460.69
2023-05-14T00:16:17.092Z,101460.81
2023-05-14T00:19:19.630Z,101456.28
2023-05-14T00:22:22.397Z,101457.03
2023-05-14T00:25:24.969Z,101449.06
2023-05-14T00:28:27.968Z,101449.00
2023-05-14T00:31:30.905Z,101452.47
2023-05-14T00:34:35.111Z,101453.84
2023-05-14T00:37:37.833Z,101448.63
2023-05-14T00:40:44.330Z,101449.44
2023-05-14T00:43:46.915Z,101452.16
2023-05-14T00:46:50.001Z,101450.31
2023-05-14T00:49:52.516Z,101455.69
2023-05-14T00:52:55.371Z,101462.53
2023-05-14T00:55:59.330Z,101468.56
2023-05-14T00:59:02.354Z,101464.88
2023-05-14T01:02:04.993Z,101470.91
2023-05-14T01:05:08.655Z,101477.56
2023-05-14T01:08:26.389Z,101474.25
2023-05-14T01:11:38.224Z,101471.47
2023-05-14T01:15:05.164Z,101464.31
2023-05-14T01:18:11.042Z,101467.03
2023-05-14T01:21:28.928Z,101458.16
2023-05-14T01:24:31.714Z,101464.38
2023-05-14T01:27:43.381Z,101469.72
2023-05-14T01:30:54.179Z,101466.25
2023-05-14T01:33:58.297Z,101463.69
2023-05-14T01:37:01.327Z,101461.84
2023-05-14T01:40:04.642Z,101460.88
2023-05-14T01:43:08.890Z,101444.97
2023-05-14T01:46:12.736Z,101449.38
2023-05-14T01:49:18.306Z,101439.63
2023-05-14T01:52:21.623Z,101436.94
2023-05-14T01:55:24.959Z,101437.94
2023-05-14T01:58:27.500Z,101438.06
2023-05-14T02:01:30.424Z,101443.28
2023-05-14T02:04:33.357Z,101438.88
2023-05-14T02:07:36.799Z,101433.44
2023-05-14T02:10:39.251Z,101440.41
2023-05-14T02:13:42.445Z,101423.66
2023-05-14T02:16:45.034Z,101424.53
2023-05-14T02:19:48.092Z,101423.69
2023-05-14T02:22:51.044Z,101421.94
2023-05-14T02:25:53.923Z,101427.88
2023-05-14T02:28:56.405Z,101425.25
2023-05-14T02:31:59.711Z,101426.88
2023-05-14T02:35:02.247Z,101433.09
2023-05-14T02:38:05.031Z,101436.50
2023-05-14T02:41:07.726Z,101427.28
2023-05-14T02:44:10.437Z,101432.75
2023-05-14T02:47:12.971Z,101424.91
2023-05-14T02:50:15.830Z,101417.69
2023-05-14T02:53:18.657Z,101427.25
2023-05-14T02:56:21.551Z,101413.94
2023-05-14T02:59:25.209Z,101425.63
2023-05-14T03:02:29.032Z,101426.28
2023-05-14T03:05:32.088Z,101428.75
2023-05-14T03:08:34.971Z,101420.72
2023-05-14T03:11:37.709Z,101427.84
2023-05-14T03:14:40.595Z,101432.16
2023-05-14T03:17:44.056Z,101429.72
2023-05-14T03:20:47.005Z,101422.53
2023-05-14T03:23:49.646Z,101425.22
2023-05-14T03:26:54.656Z,101427.03
2023-05-14T03:29:57.159Z,101424.59
2023-05-14T03:33:00.297Z,101422.72
2023-05-14T03:36:02.792Z,101413.84
2023-05-14T03:39:09.743Z,101418.44
2023-05-14T03:42:12.351Z,101423.81
2023-05-14T03:45:15.206Z,101418.59
2023-05-14T03:48:17.684Z,101416.97
2023-05-14T03:51:20.542Z,101415.22
2023-05-14T03:54:23.154Z,101421.41
2023-05-14T03:57:26.047Z,101424.06
2023-05-14T04:00:29.249Z,101409.19
2023-05-14T04:03:32.322Z,101406.78
2023-05-14T04:06:35.019Z,101408.78
2023-05-14T04:09:38.100Z,101412.19
2023-05-14T04:12:40.556Z,101406.09
2023-05-14T04:15:44.900Z,101410.63
2023-05-14T04:18:47.464Z,101407.09
2023-05-14T04:21:51.132Z,101410.75
2023-05-14T04:24:53.887Z,101409.91
2023-05-14T04:27:56.751Z,101408.31
2023-05-14T04:30:59.997Z,101415.53
2023-05-14T04:34:03.074Z,101409.63
2023-05-14T04:37:05.676Z,101408.06
2023-05-14T04:40:11.473Z,101415.28
2023-05-14T04:43:13.956Z,101404.94
2023-05-14T04:46:16.991Z,101408.75
2023-05-14T04:49:19.684Z,101408.09
2023-05-14T04:52:22.486Z,101402.13
2023-05-14T04:55:25.976Z,101391.56
2023-05-14T04:58:29.424Z,101396.34
2023-05-14T05:01:31.897Z,101390.38
2023-05-14T05:04:34.610Z,101386.97
2023-05-14T05:07:38.070Z,101384.63
2023-05-14T05:10:41.119Z,101391.09
2023-05-14T05:13:43.948Z,101387.72
2023-05-14T05:16:47.355Z,101387.94
2023-05-14T05:19:49.856Z,101385.47
2023-05-14T05:22:52.769Z,101385.66
2023-05-14T05:25:55.325Z,101384.25
2023-05-14T05:28:58.218Z,101375.59
2023-05-14T05:32:00.907Z,101375.75
2023-05-14T05:35:04.007Z,101381.16
2023-05-14T05:38:06.489Z,101371.53
2023-05-14T05:41:09.284Z,101378.78
2023-05-14T05:44:11.808Z,101380.66
2023-05-14T05:47:17.276Z,101376.31
2023-05-14T05:50:20.139Z,101363.97
2023-05-14T05:53:23.148Z,101366.59
2023-05-14T05:56:25.709Z,101367.47
2023-05-14T05:59:28.530Z,101370.88
2023-05-14T06:02:31.072Z,101366.97
2023-05-14T06:05:33.959Z,101369.28
2023-05-14T06:08:36.640Z,101360.59
2023-05-14T06:11:39.444Z,101364.63
2023-05-14T06:14:42.002Z,101368.47
2023-05-14T06:17:47.595Z,101367.72
2023-05-14T06:20:50.289Z,101363.34
2023-05-14T06:23:54.109Z,101352.56
2023-05-14T06:26:56.735Z,101352.72
2023-05-14T06:29:59.521Z,101356.75
2023-05-14T06:33:02.351Z,101348.66
2023-05-14T06:36:08.217Z,101343.22
2023-05-14T06:39:13.465Z,101350.06
2023-05-14T06:42:18.679Z,101350.50
2023-05-14T06:45:21.131Z,101342.78
2023-05-14T06:48:24.271Z,101340.97
2023-05-14T06:51:28.309Z,101331.25
2023-05-14T06:54:31.439Z,101327.38
2023-05-14T06:57:34.939Z,101331.13
2023-05-14T07:00:37.832Z,101326.53
2023-05-14T07:03:40.390Z,101326.91
2023-05-14T07:06:43.205Z,101325.09
2023-05-14T07:09:45.660Z,101323.38
2023-05-14T07:12:48.994Z,101319.22
2023-05-14T07:15:51.688Z,101323.06
2023-05-14T07:18:54.671Z,101316.72
2023-05-14T07:21:59.148Z,101316.84
2023-05-14T07:25:03.663Z,101312.38
2023-05-14T07:28:07.624Z,101312.22
2023-05-14T07:31:10.805Z,101311.13
2023-05-14T07:34:13.434Z,101304.50
2023-05-14T07:37:16.407Z,101300.75
2023-05-14T07:40:19.112Z,101306.41
2023-05-14T07:43:21.910Z,101309.88
2023-05-14T07:46:25.957Z,101297.06
2023-05-14T07:49:28.717Z,101289.00
2023-05-14T07:52:31.290Z,101289.38
2023-05-14T07:55:34.196Z,101295.66
2023-05-14T07:58:36.639Z,101280.66
2023-05-14T08:01:39.712Z,101278.34
2023-05-14T08:04:42.619Z,101277.56
2023-05-14T08:07:45.452Z,101282.66
2023-05-14T08:10:47.997Z,101266.19
2023-05-14T08:13:50.923Z,101266.16
2023-05-14T08:16:53.822Z,101264.63
2023-05-14T08:19:56.841Z,101266.25
2023-05-14T08:22:59.443Z,101248.69
2023-05-14T08:26:02.480Z,101245.63
2023-05-14T08:29:05.651Z,101247.69
2023-05-14T08:32:22.020Z,101242.09
2023-05-14T08:35:26.217Z,101244.81
2023-05-14T08:38:29.092Z,101239.63
2023-05-14T08:41:32.334Z,101229.94
2023-05-14T08:45:21.650Z,101226.84
2023-05-14T08:48:27.666Z,101234.63
2023-05-14T08:51:30.591Z,101228.16
2023-05-14T08:54:33.319Z,101231.19
2023-05-14T08:57:35.905Z,101230.91
2023-05-14T09:00:39.139Z,101230.75
2023-05-14T09:03:41.751Z,101213.31
2023-05-14T09:06:45.288Z,101224.59
2023-05-14T09:09:48.114Z,101216.03
2023-05-14T09:12:51.836Z,101219.75
2023-05-14T09:15:55.102Z,101206.75
2023-05-14T09:18:58.669Z,101221.44
2023-05-14T09:22:01.335Z,101205.56
2023-05-14T09:25:06.517Z,101212.06
2023-05-14T09:28:09.514Z,101206.06
2023-05-14T09:31:12.289Z,101213.31
2023-05-14T09:34:24.766Z,101206.78
2023-05-14T09:37:28.918Z,101202.53
2023-05-14T09:40:32.838Z,101211.72
2023-05-14T09:43:35.600Z,101195.50
2023-05-14T09:46:38.063Z,101188.22
2023-05-14T09:49:40.767Z,101196.53
2023-05-14T09:52:43.445Z,101181.22
2023-05-14T09:55:46.527Z,101191.28
2023-05-14T09:58:49.020Z,101194.53
2023-05-14T10:01:52.789Z,101190.63
2023-05-14T10:04:59.027Z,101186.94
2023-05-14T10:08:05.822Z,101183.81
2023-05-14T10:11:21.238Z,101191.75
2023-05-14T10:14:27.527Z,101189.78
2023-05-14T10:17:32.741Z,101179.34
2023-05-14T10:20:38.024Z,101173.28
2023-05-14T10:23:41.175Z,101175.38
2023-05-14T10:26:44.811Z,101170.66
2023-05-14T10:29:54.796Z,101172.66
2023-05-14T10:33:12.701Z,101160.41
2023-05-14T10:36:15.485Z,101153.97
2023-05-14T10:39:18.178Z,101163.63
2023-05-14T10:42:26.119Z,101141.44
2023-05-14T10:45:30.484Z,101135.78
2023-05-14T10:48:34.479Z,101137.53
2023-05-14T10:51:37.231Z,101140.75
2023-05-14T10:54:39.865Z,101118.19
2023-05-14T10:57:44.010Z,101126.97
2023-05-14T11:00:48.313Z,101146.56
2023-05-14T11:03:53.620Z,101122.34
2023-05-14T11:06:56.864Z,101114.06
2023-05-14T11:10:20.299Z,101110.78
2023-05-14T11:13:23.165Z,101124.00
2023-05-14T11:16:31.041Z,101117.91
2023-05-14T11:19:33.517Z,101104.81
2023-05-14T11:22:39.079Z,101101.28
2023-05-14T11:25:41.941Z,101102.38
2023-05-14T11:28:44.831Z,101089.84
2023-05-14T11:31:47.391Z,101088.91
2023-05-14T11:34:50.213Z,101075.00
2023-05-14T11:37:53.214Z,101071.13
2023-05-14T11:40:57.224Z,101068.53
2023-05-14T11:43:59.637Z,101039.06
2023-05-14T11:47:02.690Z,101048.47
2023-05-14T11:50:06.321Z,101051.91
2023-05-14T11:53:10.722Z,101044.38
2023-05-14T11:56:13.177Z,101023.00
2023-05-14T11:59:17.702Z,101011.94
2023-05-14T12:02:20.201Z,101009.41
2023-05-14T12:05:22.990Z,101004.56
2023-05-14T12:08:32.593Z,101004.91
2023-05-14T12:11:37.112Z,101001.44
2023-05-14T12:14:41.944Z,100998.63
2023-05-14T12:17:51.008Z,100998.75
2023-05-14T12:20:53.528Z,101004.19
2023-05-14T12:24:02.725Z,100995.50
2023-05-14T12:27:05.846Z,100995.50
2023-05-14T12:33:15.288Z,101004.13
2023-05-14T12:36:21.913Z,100997.94
2023-05-14T12:39:25.294Z,100987.03
2023-05-14T12:42:27.953Z,100980.09
2023-05-14T12:45:30.921Z,100985.44
2023-05-14T12:48:33.577Z,100979.81
2023-05-14T12:51:36.176Z,100986.34
2023-05-14T12:54:43.655Z,100969.53
2023-05-14T12:57:46.165Z,100961.88
2023-05-14T13:00:48.848Z,100969.25
2023-05-14T13:03:51.475Z,100965.91
2023-05-14T13:06:54.386Z,100974.28
2023-05-14T13:09:58.188Z,100960.09
2023-05-14T13:13:02.240Z,100963.69
2023-05-14T13:16:04.928Z,100965.88
2023-05-14T13:19:07.773Z,100969.06
2023-05-14T13:22:10.110Z,100961.50
2023-05-14T13:25:13.636Z,100948.44
2023-05-14T13:28:16.151Z,100949.50
2023-05-14T13:31:19.168Z,100956.69
2023-05-14T13:34:21.751Z,100964.13
2023-05-14T13:37:26.775Z,100949.84
2023-05-14T13:40:30.670Z,100941.22
2023-05-14T13:43:34.887Z,100923.84
2023-05-14T13:46:37.829Z,100919.78
2023-05-14T13:49:40.923Z,100933.44
2023-05-14T13:52:43.409Z,100926.47
2023-05-14T13:55:47.876Z,100920.44
2023-05-14T13:58:51.758Z,100917.16
2023-05-14T14:01:54.683Z,100914.44
2023-05-14T14:04:57.500Z,100910.22
2023-05-14T14:08:04.584Z,100910.81
2023-05-14T14:11:22.972Z,100887.59
2023-05-14T14:14:25.753Z,100876.97
2023-05-14T14:17:28.268Z,100892.13
2023-05-14T14:20:31.573Z,100896.06
2023-05-14T14:23:34.087Z,100876.69
2023-05-14T14:26:36.982Z,100861.38
2023-05-14T14:29:39.725Z,100873.22
2023-05-14T14:32:45.324Z,100869.91
2023-05-14T14:35:48.041Z,100852.13
2023-05-14T14:38:52.225Z,100854.25
2023-05-14T14:41:55.304Z,100851.63
2023-05-14T14:44:58.248Z,100851.25
2023-05-14T14:48:25.686Z,100851.78
2023-05-14T14:51:28.539Z,100857.84
2023-05-14T14:54:31.163Z,100846.72
2023-05-14T14:57:34.062Z,100853.97
2023-05-14T15:00:36.542Z,100863.59
2023-05-14T15:03:39.443Z,100856.59
2023-05-14T15:06:41.864Z,100849.44
2023-05-14T15:09:44.941Z,100852.38
2023-05-14T15:12:47.342Z,100848.59
2023-05-14T15:15:50.939Z,100843.16
2023-05-14T15:18:57.212Z,100840.16
2023-05-14T15:22:02.493Z,100832.72
2023-05-14T15:25:06.800Z,100827.19
2023-05-14T15:28:09.680Z,100828.84
2023-05-14T15:31:13.807Z,100835.97
2023-05-14T15:34:16.794Z,100824.91
2023-05-14T15:37:19.452Z,100832.44
2023-05-14T15:40:22.490Z,100824.72
2023-05-14T15:43:25.164Z,100813.53
2023-05-14T15:46:34.101Z,100805.19
2023-05-14T15:49:38.111Z,100816.75
2023-05-14T15:52:51.157Z,100808.25
2023-05-14T15:55:53.790Z,100806.50
2023-05-14T15:58:56.760Z,100801.41
2023-05-14T16:01:59.838Z,100795.63
2023-05-14T16:05:02.703Z,100788.53
2023-05-14T16:08:05.303Z,100794.16
2023-05-14T16:11:08.284Z,100796.22
2023-05-14T16:14:10.799Z,100795.50
2023-05-14T16:17:13.486Z,100789.53
2023-05-14T16:20:17.087Z,100796.97
2023-05-14T16:23:19.893Z,100789.38
2023-05-14T16:26:24.742Z,100793.38
2023-05-14T16:29:27.878Z,100790.09
2023-05-14T16:32:30.301Z,100793.38
2023-05-14T16:35:33.921Z,100798.97
2023-05-14T16:38:41.503Z,100790.94
2023-05-14T16:41:51.235Z,100788.38
2023-05-14T16:44:53.731Z,100780.13
2023-05-14T16:47:56.570Z,100782.97
2023-05-14T16:50:59.813Z,100777.31
2023-05-14T16:54:02.584Z,100782.50
2023-05-14T16:57:06.184Z,100781.84
2023-05-14T17:00:09.667Z,100788.22
2023-05-14T17:03:12.246Z,100774.03
2023-05-14T17:06:15.255Z,100769.56
2023-05-14T17:09:17.980Z,100772.28
2023-05-14T17:12:20.975Z,100767.78
2023-05-14T17:15:24.159Z,100767.94
2023-05-14T17:18:27.001Z,100763.13
2023-05-14T17:21:29.914Z,100765.44
2023-05-14T17:24:32.772Z,100764.38
2023-05-14T17:27:36.404Z,100760.38
2023-05-14T17:30:39.195Z,100762.22
2023-05-14T17:33:42.043Z,100757.91
2023-05-14T17:36:44.662Z,100760.56
2023-05-14T17:39:47.448Z,100763.91
2023-05-14T17:42:49.784Z,100757.75
2023-05-14T17:45:54.362Z,100764.09
2023-05-14T17:48:58.569Z,100758.94
2023-05-14T17:52:02.234Z,100766.16
2023-05-14T17:55:05.034Z,100768.78
2023-05-14T17:58:08.288Z,100768.34
2023-05-14T18:01:11.118Z,100775.50
2023-05-14T18:04:15.524Z,100764.78
2023-05-14T18:07:19.367Z,100777.00
2023-05-14T18:10:22.040Z,100780.09
2023-05-14T18:13:24.898Z,100778.69
2023-05-14T18:16:28.010Z,100772.53
2023-05-14T18:19:30.742Z,100769.34
2023-05-14T18:22:33.661Z,100771.00
2023-05-14T18:25:36.622Z,100773.56
2023-05-14T18:28:39.524Z,100775.91
2023-05-14T18:31:42.013Z,100775.94
2023-05-14T18:34:44.812Z,100762.28
2023-05-14T18:37:48.022Z,100780.50
2023-05-14T18:40:51.376Z,100774.75
2023-05-14T18:43:54.026Z,100775.47
2023-05-14T18:46:57.031Z,100776.06
2023-05-14T18:50:00.582Z,100774.88
2023-05-14T18:53:05.236Z,100783.53
2023-05-14T18:56:10.108Z,100782.28
2023-05-14T18:59:14.223Z,100779.16
2023-05-14T19:02:17.072Z,100790.34
2023-05-14T19:05:20.576Z,100780.75
2023-05-14T19:11:43.893Z,100780.59
2023-05-14T19:14:46.654Z,100783.69
2023-05-14T19:17:55.210Z,100781.59
2023-05-14T19:20:57.974Z,100770.16
2023-05-14T19:24:01.358Z,100773.09
2023-05-14T19:27:05.000Z,100764.47
2023-05-14T19:30:08.634Z,100760.19
2023-05-14T19:33:11.228Z,100761.44
2023-05-14T19:36:14.785Z,100765.41
2023-05-14T19:39:17.045Z,100766.59
2023-05-14T19:42:19.733Z,100760.41
2023-05-14T19:45:23.518Z,100752.66
2023-05-14T19:48:27.153Z,100757.41
2023-05-14T19:51:30.224Z,100752.38
2023-05-14T19:54:33.813Z,100758.78
2023-05-14T19:57:39.002Z,100751.00
2023-05-14T20:00:42.678Z,100753.84
2023-05-14T20:03:46.596Z,100746.19
2023-05-14T20:06:49.987Z,100748.47
2023-05-14T20:09:53.585Z,100749.53
2023-05-14T20:12:56.557Z,100749.59
2023-05-14T20:15:59.578Z,100747.06
2023-05-14T20:19:02.320Z,100741.00
2023-05-14T20:22:05.769Z,100744.56
2023-05-14T20:25:09.465Z,100740.25
2023-05-14T20:28:12.228Z,100744.97
2023-05-14T20:31:15.084Z,100744.25
2023-05-14T20:34:17.577Z,100733.63
2023-05-14T20:37:20.526Z,100740.75
2023-05-14T20:40:23.735Z,100730.06
2023-05-14T20:43:29.727Z,100729.41
2023-05-14T20:46:32.578Z,100728.59
2023-05-14T20:49:35.299Z,100732.44
2023-05-14T20:52:38.026Z,100711.22
2023-05-14T20:55:41.492Z,100708.66
2023-05-14T20:58:43.964Z,100702.53
2023-05-14T21:01:46.885Z,100699.91
2023-05-14T21:04:49.244Z,100705.31
2023-05-14T21:07:52.063Z,100697.44
2023-05-14T21:10:54.563Z,100689.47
2023-05-14T21:13:58.000Z,100683.31
2023-05-14T21:17:00.393Z,100690.56
2023-05-14T21:20:03.218Z,100682.59
2023-05-14T21:23:05.923Z,100688.97
2023-05-14T21:26:08.672Z,100685.38
2023-05-14T21:29:11.683Z,100679.28
2023-05-14T21:32:14.328Z,100673.13
2023-05-14T21:35:16.790Z,100673.13
2023-05-14T21:38:19.984Z,100666.13
2023-05-14T21:41:22.630Z,100667.06
2023-05-14T21:44:25.387Z,100668.84
2023-05-14T21:47:27.988Z,100670.59
2023-05-14T21:50:30.999Z,100660.66
2023-05-14T21:53:33.496Z,100650.78
2023-05-14T21:56:37.347Z,100664.13
2023-05-14T21:59:39.759Z,100648.09
2023-05-14T22:02:42.471Z,100641.97
2023-05-14T22:05:44.998Z,100651.75
2023-05-14T22:08:47.793Z,100642.91
2023-05-14T22:11:50.340Z,100641.16
2023-05-14T22:14:53.157Z,100646.56
2023-05-14T22:17:56.169Z,100637.75
2023-05-14T22:20:59.085Z,100629.69
2023-05-14T22:24:01.452Z,100625.34
2023-05-14T22:27:04.479Z,100629.81
2023-05-14T22:30:07.712Z,100624.50
2023-05-14T22:33:10.523Z,100621.75
2023-05-14T22:36:13.062Z,100614.63
2023-05-14T22:39:15.821Z,100612.75
2023-05-14T22:42:20.492Z,100607.38
2023-05-14T22:45:23.686Z,100601.16
2023-05-14T22:48:26.276Z,100600.13
2023-05-14T22:51:28.940Z,100594.78
2023-05-14T22:54:31.281Z,100604.53
2023-05-14T22:57:34.800Z,100594.91
2023-05-14T23:00:37.336Z,100587.66
2023-05-14T23:03:39.979Z,100579.69
2023-05-14T23:06:42.817Z,100583.88
2023-05-14T23:09:45.783Z,100575.78
2023-05-14T23:12:48.268Z,100574.75
2023-05-14T23:15:51.197Z,100570.34
2023-05-14T23:18:53.831Z,100565.72
2023-05-14T23:21:58.527Z,100575.50
2023-05-14T23:25:01.235Z,100554.03
2023-05-14T23:28:03.990Z,100559.38
2023-05-14T23:31:08.452Z,100555.78
2023-05-14T23:34:11.304Z,100552.22
2023-05-14T23:37:13.857Z,100547.66
2023-05-14T23:40:17.087Z,100539.41
2023-05-14T23:43:19.385Z,100539.47
2023-05-14T23:46:22.539Z,100532.41
2023-05-14T23:49:24.922Z,100525.38
2023-05-14T23:52:27.614Z,100528.81
2023-05-14T23:55:29.915Z,100522.69
2023-05-14T23:58:33.557Z,100521.75
